createdAt,value
2018-11-23T00:00:27.956Z,31.65
2018-11-23T00:01:02.389Z,30.35
2018-11-23T00:01:36.544Z,32.70
2018-11-23T00:02:11.350Z,32.40
2018-11-23T00:02:46.342Z,32.90
2018-11-23T00:03:20.446Z,32.60
2018-11-23T00:03:54.623Z,32.30
2018-11-23T00:04:29.077Z,33.78
2018-11-23T00:05:03.516Z,34.67
2018-11-23T00:05:38.269Z,33.90
2018-11-23T00:06:12.414Z,34.13
2018-11-23T00:06:46.563Z,34.67
2018-11-23T00:07:20.749Z,34.20
2018-11-23T00:07:55.492Z,33.80
2018-11-23T00:08:29.590Z,34.23
2018-11-23T00:09:05.338Z,34.58
2018-11-23T00:09:39.436Z,34.05
2018-11-23T00:10:14.866Z,34.05
2018-11-23T00:10:48.962Z,32.35
2018-11-23T00:11:23.104Z,33.95
2018-11-23T00:11:57.314Z,33.50
2018-11-23T00:12:31.498Z,32.45
2018-11-23T00:13:05.984Z,34.88
2018-11-23T00:13:40.105Z,33.67
2018-11-23T00:14:14.399Z,33.65
2018-11-23T00:14:48.510Z,34.60
2018-11-23T00:15:23.809Z,32.80
2018-11-23T00:15:58.298Z,34.00
2018-11-23T00:16:32.790Z,32.28
2018-11-23T00:17:06.960Z,32.90
2018-11-23T00:17:41.245Z,32.78
2018-11-23T00:18:15.459Z,35.43
2018-11-23T00:18:49.554Z,33.45
2018-11-23T00:19:23.681Z,34.35
2018-11-23T00:19:57.811Z,33.98
2018-11-23T00:20:31.919Z,34.75
2018-11-23T00:21:06.410Z,32.80
2018-11-23T00:21:40.533Z,34.38
2018-11-23T00:22:14.665Z,34.13
2018-11-23T00:22:49.196Z,35.40
2018-11-23T00:23:23.406Z,34.65
2018-11-23T00:23:57.555Z,33.02
2018-11-23T00:24:31.665Z,33.18
2018-11-23T00:25:07.207Z,33.10
2018-11-23T00:25:42.174Z,34.85
2018-11-23T00:26:16.052Z,32.33
2018-11-23T00:26:50.170Z,32.73
2018-11-23T00:27:24.982Z,33.95
2018-11-23T00:27:59.324Z,32.95
2018-11-23T00:28:33.443Z,37.00
2018-11-23T00:29:07.914Z,33.63
2018-11-23T00:29:42.032Z,33.63
2018-11-23T00:30:20.971Z,36.08
2018-11-23T00:30:55.074Z,32.17
2018-11-23T00:31:35.974Z,32.45
2018-11-23T00:32:10.101Z,32.55
2018-11-23T00:32:44.535Z,31.17
2018-11-23T00:33:18.674Z,33.00
2018-11-23T00:33:53.424Z,30.05
2018-11-23T00:34:27.519Z,32.78
2018-11-23T00:35:01.682Z,32.50
2018-11-23T00:35:35.823Z,33.38
2018-11-23T00:36:09.950Z,32.15
2018-11-23T00:36:44.090Z,33.28
2018-11-23T00:37:18.532Z,32.45
2018-11-23T00:37:53.257Z,33.20
2018-11-23T00:38:27.346Z,32.88
2018-11-23T00:39:01.768Z,32.53
2018-11-23T00:39:36.236Z,33.48
2018-11-23T00:40:13.065Z,32.75
2018-11-23T00:40:47.167Z,33.30
2018-11-23T00:41:21.300Z,32.55
2018-11-23T00:41:55.435Z,33.35
2018-11-23T00:42:29.538Z,35.08
2018-11-23T00:43:04.033Z,33.48
2018-11-23T00:43:38.465Z,33.00
2018-11-23T00:44:12.638Z,34.00
2018-11-23T00:44:46.810Z,34.30
2018-11-23T00:45:20.975Z,34.43
2018-11-23T00:45:55.453Z,33.73
2018-11-23T00:46:30.158Z,33.23
2018-11-23T00:47:04.434Z,33.92
2018-11-23T00:47:38.687Z,33.88
2018-11-23T00:48:12.855Z,33.45
2018-11-23T00:48:46.984Z,34.53
2018-11-23T00:49:21.449Z,32.15
2018-11-23T00:49:55.579Z,33.00
2018-11-23T00:50:30.034Z,33.50
2018-11-23T00:51:04.661Z,33.45
2018-11-23T00:51:38.770Z,34.43
2018-11-23T00:52:12.908Z,33.53
2018-11-23T00:52:47.362Z,32.55
2018-11-23T00:53:21.566Z,31.17
2018-11-23T00:53:55.668Z,31.57
2018-11-23T00:54:29.822Z,31.17
2018-11-23T00:55:04.278Z,29.98
2018-11-23T00:55:38.424Z,29.63
2018-11-23T00:56:12.542Z,31.90
2018-11-23T00:56:46.682Z,30.82
2018-11-23T00:57:20.864Z,29.65
2018-11-23T00:57:54.981Z,29.10
2018-11-23T00:58:29.148Z,28.95
2018-11-23T00:59:03.633Z,30.15
2018-11-23T00:59:37.711Z,29.63
2018-11-23T01:00:22.899Z,29.05
2018-11-23T01:00:57.018Z,28.10
2018-11-23T01:01:35.384Z,28.50
2018-11-23T01:02:10.660Z,27.65
2018-11-23T01:02:45.078Z,28.38
2018-11-23T01:03:19.194Z,28.60
2018-11-23T01:03:54.118Z,29.30
2018-11-23T01:04:28.226Z,28.67
2018-11-23T01:05:02.450Z,31.00
2018-11-23T01:05:36.854Z,28.85
2018-11-23T01:06:11.280Z,28.20
2018-11-23T01:06:45.400Z,27.10
2018-11-23T01:07:20.522Z,28.98
2018-11-23T01:07:54.907Z,29.42
2018-11-23T01:08:29.032Z,28.15
2018-11-23T01:09:04.050Z,29.18
2018-11-23T01:09:38.558Z,28.27
2018-11-23T01:10:13.850Z,28.42
2018-11-23T01:10:48.317Z,28.65
2018-11-23T01:11:22.444Z,27.70
2018-11-23T01:11:56.544Z,28.30
2018-11-23T01:12:30.998Z,27.98
2018-11-23T01:13:06.071Z,27.48
2018-11-23T01:13:40.224Z,26.57
2018-11-23T01:14:14.682Z,28.35
2018-11-23T01:14:49.158Z,27.62
2018-11-23T01:15:24.018Z,27.90
2018-11-23T01:15:58.512Z,27.80
2018-11-23T01:16:32.968Z,26.70
2018-11-23T01:17:07.752Z,27.45
2018-11-23T01:17:41.904Z,28.45
2018-11-23T01:18:15.982Z,26.33
2018-11-23T01:18:50.101Z,26.57
2018-11-23T01:19:24.236Z,27.60
2018-11-23T01:19:59.028Z,27.93
2018-11-23T01:20:33.491Z,26.65
2018-11-23T01:21:08.277Z,31.48
2018-11-23T01:21:42.406Z,29.05
2018-11-23T01:22:16.658Z,27.82
2018-11-23T01:22:51.598Z,27.60
2018-11-23T01:23:25.697Z,28.60
2018-11-23T01:23:59.950Z,27.22
2018-11-23T01:24:34.070Z,28.10
2018-11-23T01:25:09.838Z,28.38
2018-11-23T01:25:43.974Z,29.48
2018-11-23T01:27:21.378Z,26.75
2018-11-23T01:27:56.274Z,26.40
2018-11-23T01:28:30.388Z,27.17
2018-11-23T01:29:04.848Z,26.30
2018-11-23T01:29:38.973Z,29.37
2018-11-23T01:30:16.345Z,28.42
2018-11-23T01:30:50.426Z,26.35
2018-11-23T01:31:24.879Z,27.55
2018-11-23T01:31:59.019Z,29.55
2018-11-23T01:32:33.116Z,28.30
2018-11-23T01:33:07.265Z,28.85
2018-11-23T01:33:41.346Z,28.32
2018-11-23T01:34:15.466Z,27.45
2018-11-23T01:34:49.732Z,30.37
2018-11-23T01:35:24.178Z,29.27
2018-11-23T01:35:58.632Z,29.37
2018-11-23T01:36:33.264Z,28.98
2018-11-23T01:37:07.695Z,29.80
2018-11-23T01:37:42.394Z,31.17
2018-11-23T01:38:16.798Z,32.10
2018-11-23T01:38:50.943Z,30.30
2018-11-23T01:39:25.101Z,31.80
2018-11-23T01:39:59.594Z,31.70
2018-11-23T01:40:34.026Z,29.55
2018-11-23T01:41:08.488Z,31.25
2018-11-23T01:41:42.574Z,32.85
2018-11-23T01:42:17.351Z,30.37
2018-11-23T01:42:51.954Z,32.13
2018-11-23T01:43:26.402Z,31.70
2018-11-23T01:44:00.854Z,30.95
2018-11-23T01:44:40.264Z,29.92
2018-11-23T01:45:15.048Z,30.27
2018-11-23T01:45:49.492Z,31.27
2018-11-23T01:46:23.652Z,29.67
2018-11-23T01:46:57.751Z,32.00
2018-11-23T01:47:31.834Z,31.12
2018-11-23T01:48:06.147Z,32.42
2018-11-23T01:48:40.576Z,33.83
2018-11-23T01:49:14.670Z,31.48
2018-11-23T01:49:48.824Z,32.60
2018-11-23T01:50:24.825Z,32.08
2018-11-23T01:50:58.950Z,34.38
2018-11-23T01:51:33.147Z,31.30
2018-11-23T01:52:07.260Z,34.18
2018-11-23T01:52:41.592Z,32.90
2018-11-23T01:53:15.706Z,32.03
2018-11-23T01:53:49.824Z,32.78
2018-11-23T01:54:23.952Z,33.02
2018-11-23T01:54:58.158Z,32.48
2018-11-23T01:55:32.290Z,33.40
2018-11-23T01:56:06.463Z,32.65
2018-11-23T01:56:40.550Z,33.00
2018-11-23T01:57:15.043Z,31.45
2018-11-23T01:57:49.195Z,32.53
2018-11-23T01:58:23.342Z,32.75
2018-11-23T01:58:57.790Z,32.45
2018-11-23T01:59:32.258Z,31.95
2018-11-23T02:00:07.550Z,32.08
2018-11-23T02:00:41.692Z,33.40
2018-11-23T02:01:15.782Z,29.50
2018-11-23T02:01:49.962Z,31.12
2018-11-23T02:02:24.406Z,31.52
2018-11-23T02:02:58.651Z,33.55
2018-11-23T02:03:32.778Z,31.45
2018-11-23T02:04:07.302Z,31.23
2018-11-23T02:04:41.400Z,32.50
2018-11-23T02:05:15.854Z,31.12
2018-11-23T02:05:50.015Z,33.95
2018-11-23T02:06:24.179Z,30.65
2018-11-23T02:06:58.664Z,30.95
2018-11-23T02:07:32.744Z,31.87
2018-11-23T02:08:07.426Z,31.30
2018-11-23T02:08:41.528Z,33.38
2018-11-23T02:09:15.662Z,32.05
2018-11-23T02:09:50.274Z,31.82
2018-11-23T02:10:24.800Z,31.77
2018-11-23T02:10:59.344Z,31.10
2018-11-23T02:11:33.462Z,33.80
2018-11-23T02:12:08.442Z,32.13
2018-11-23T02:12:43.076Z,31.70
2018-11-23T02:13:17.180Z,32.60
2018-11-23T02:13:51.291Z,33.58
2018-11-23T02:14:25.398Z,33.33
2018-11-23T02:14:59.500Z,33.73
2018-11-23T02:15:33.590Z,32.53
2018-11-23T02:16:08.400Z,33.80
2018-11-23T02:16:42.574Z,32.38
2018-11-23T02:17:17.017Z,34.33
2018-11-23T02:17:51.502Z,32.00
2018-11-23T02:18:25.591Z,34.08
2018-11-23T02:18:59.715Z,31.82
2018-11-23T02:19:33.850Z,31.65
2018-11-23T02:20:10.738Z,29.77
2018-11-23T02:20:44.840Z,31.02
2018-11-23T02:21:19.024Z,32.45
2018-11-23T02:21:53.566Z,31.73
2018-11-23T02:22:28.194Z,29.95
2018-11-23T02:23:02.348Z,30.35
2018-11-23T02:23:36.496Z,28.50
2018-11-23T02:24:10.988Z,30.88
2018-11-23T02:24:45.156Z,31.95
2018-11-23T02:25:19.612Z,30.15
2018-11-23T02:25:53.972Z,31.48
2018-11-23T02:26:28.241Z,29.70
2018-11-23T02:27:02.728Z,32.42
2018-11-23T02:27:37.232Z,30.32
2018-11-23T02:28:11.396Z,29.00
2018-11-23T02:28:45.541Z,29.95
2018-11-23T02:29:19.696Z,30.50
2018-11-23T02:29:53.943Z,31.35
2018-11-23T02:30:28.488Z,30.37
2018-11-23T02:31:07.594Z,30.95
2018-11-23T02:31:41.784Z,30.75
2018-11-23T02:32:15.944Z,30.52
2018-11-23T02:32:50.088Z,31.17
2018-11-23T02:33:24.192Z,32.10
2018-11-23T02:33:58.388Z,32.13
2018-11-23T02:34:32.864Z,32.00
2018-11-23T02:35:07.354Z,31.60
2018-11-23T02:35:41.513Z,32.40
2018-11-23T02:36:15.705Z,32.13
2018-11-23T02:36:49.936Z,31.42
2018-11-23T02:37:24.757Z,31.90
2018-11-23T02:37:58.883Z,30.95
2018-11-23T02:38:33.004Z,33.42
2018-11-23T02:39:08.855Z,31.73
2018-11-23T02:39:43.024Z,33.18
2018-11-23T02:40:18.610Z,29.77
2018-11-23T02:40:52.791Z,30.20
2018-11-23T02:41:26.931Z,31.75
2018-11-23T02:42:01.120Z,33.15
2018-11-23T02:42:35.702Z,33.10
2018-11-23T02:43:09.904Z,33.05
2018-11-23T02:44:47.635Z,30.68
2018-11-23T02:45:23.148Z,29.55
2018-11-23T02:45:57.331Z,30.90
2018-11-23T02:46:31.632Z,33.40
2018-11-23T02:47:06.208Z,33.45
2018-11-23T02:47:41.589Z,31.80
2018-11-23T02:48:15.792Z,32.50
2018-11-23T02:48:49.928Z,32.00
2018-11-23T02:49:24.126Z,33.98
2018-11-23T02:49:58.603Z,32.80
2018-11-23T02:50:32.790Z,32.65
2018-11-23T02:51:07.302Z,34.75
2018-11-23T02:51:41.413Z,34.05
2018-11-23T02:52:15.630Z,32.83
2018-11-23T02:52:50.628Z,33.30
2018-11-23T02:53:24.874Z,31.60
2018-11-23T02:53:59.019Z,35.08
2018-11-23T02:54:33.208Z,31.48
2018-11-23T02:55:08.140Z,33.78
2018-11-23T02:55:42.277Z,31.90
2018-11-23T02:56:16.649Z,32.35
2018-11-23T02:56:51.177Z,30.62
2018-11-23T02:57:25.381Z,32.20
2018-11-23T02:57:59.558Z,34.20
2018-11-23T02:58:33.732Z,31.77
2018-11-23T02:59:07.926Z,36.90
2018-11-23T02:59:42.079Z,36.23
2018-11-23T03:00:20.359Z,34.15
2018-11-23T03:00:54.514Z,33.02
2018-11-23T03:01:28.675Z,33.55
2018-11-23T03:02:02.857Z,35.35
2018-11-23T03:02:37.424Z,33.02
2018-11-23T03:03:11.635Z,33.50
2018-11-23T03:03:46.103Z,33.23
2018-11-23T03:04:20.721Z,32.75
2018-11-23T03:04:54.845Z,33.05
2018-11-23T03:05:29.048Z,32.25
2018-11-23T03:06:03.523Z,34.75
2018-11-23T03:06:37.681Z,35.55
2018-11-23T03:07:11.824Z,32.67
2018-11-23T03:07:46.365Z,33.28
2018-11-23T03:08:20.499Z,33.90
2018-11-23T03:08:54.637Z,34.63
2018-11-23T03:09:28.795Z,35.13
2018-11-23T03:10:02.918Z,35.00
2018-11-23T03:10:37.054Z,35.03
2018-11-23T03:11:11.237Z,34.23
2018-11-23T03:11:45.749Z,34.55
2018-11-23T03:12:19.894Z,34.23
2018-11-23T03:12:54.199Z,34.65
2018-11-23T03:13:28.413Z,34.55
2018-11-23T03:14:02.561Z,34.92
2018-11-23T03:14:36.718Z,34.38
2018-11-23T03:15:12.576Z,35.08
2018-11-23T03:15:46.677Z,34.60
2018-11-23T03:16:20.795Z,36.28
2018-11-23T03:16:54.942Z,34.55
2018-11-23T03:17:29.078Z,34.18
2018-11-23T03:18:03.251Z,35.83
2018-11-23T03:18:37.425Z,34.23
2018-11-23T03:19:11.564Z,34.88
2018-11-23T03:19:45.750Z,36.85
2018-11-23T03:20:21.245Z,34.75
2018-11-23T03:20:55.383Z,35.10
2018-11-23T03:21:29.534Z,34.60
2018-11-23T03:22:03.674Z,35.58
2018-11-23T03:22:37.844Z,36.68
2018-11-23T03:23:12.016Z,35.15
2018-11-23T03:23:46.171Z,34.53
2018-11-23T03:24:20.317Z,34.27
2018-11-23T03:24:54.779Z,35.38
2018-11-23T03:25:28.931Z,32.95
2018-11-23T03:26:03.100Z,34.85
2018-11-23T03:26:37.257Z,35.83
2018-11-23T03:27:11.408Z,35.33
2018-11-23T03:27:45.889Z,33.70
2018-11-23T03:28:20.199Z,35.55
2018-11-23T03:28:54.864Z,35.70
2018-11-23T03:29:29.007Z,34.50
2018-11-23T03:30:03.547Z,38.20
2018-11-23T03:30:38.026Z,36.28
2018-11-23T03:31:12.664Z,35.73
2018-11-23T03:31:46.369Z,33.98
2018-11-23T03:32:20.502Z,35.65
2018-11-23T03:32:54.659Z,34.60
2018-11-23T03:33:28.829Z,33.92
2018-11-23T03:34:02.960Z,36.17
2018-11-23T03:34:37.126Z,36.17
2018-11-23T03:35:11.613Z,38.25
2018-11-23T03:35:45.762Z,34.33
2018-11-23T03:36:20.412Z,36.17
2018-11-23T03:36:54.549Z,36.45
2018-11-23T03:37:28.696Z,36.23
2018-11-23T03:38:02.850Z,35.90
2018-11-23T03:38:37.014Z,36.30
2018-11-23T03:39:11.525Z,36.48
2018-11-23T03:39:45.743Z,38.00
2018-11-23T03:40:19.979Z,36.65
2018-11-23T03:40:54.312Z,34.35
2018-11-23T03:41:28.487Z,35.75
2018-11-23T03:42:02.664Z,33.55
2018-11-23T03:42:36.815Z,35.60
2018-11-23T03:43:11.020Z,36.90
2018-11-23T03:43:45.205Z,35.92
2018-11-23T03:44:19.371Z,35.28
2018-11-23T03:44:53.510Z,36.70
2018-11-23T03:45:27.681Z,36.40
2018-11-23T03:46:01.825Z,35.25
2018-11-23T03:46:35.954Z,35.70
2018-11-23T03:47:10.093Z,35.55
2018-11-23T03:47:45.167Z,34.03
2018-11-23T03:48:19.350Z,34.53
2018-11-23T03:48:53.532Z,37.15
2018-11-23T03:49:27.720Z,34.50
2018-11-23T03:50:01.900Z,35.83
2018-11-23T03:50:36.020Z,37.20
2018-11-23T03:51:10.137Z,36.85
2018-11-23T03:51:44.470Z,35.20
2018-11-23T03:52:18.611Z,37.70
2018-11-23T03:52:53.083Z,35.10
2018-11-23T03:53:27.267Z,37.00
2018-11-23T03:54:01.446Z,35.23
2018-11-23T03:54:35.600Z,36.95
2018-11-23T03:55:10.030Z,37.55
2018-11-23T03:55:44.178Z,37.80
2018-11-23T03:56:18.305Z,36.63
2018-11-23T03:56:52.456Z,38.90
2018-11-23T03:57:26.662Z,37.75
2018-11-23T03:58:00.834Z,38.00
2018-11-23T03:58:34.968Z,37.08
2018-11-23T03:59:09.130Z,36.95
2018-11-23T03:59:43.264Z,37.70
2018-11-23T04:00:19.946Z,37.10
2018-11-23T04:00:54.056Z,35.28
2018-11-23T04:01:28.198Z,35.92
2018-11-23T04:02:02.380Z,36.28
2018-11-23T04:02:36.845Z,35.13
2018-11-23T04:03:10.996Z,34.50
2018-11-23T04:03:45.144Z,35.05
2018-11-23T04:04:19.438Z,37.40
2018-11-23T04:04:53.597Z,34.83
2018-11-23T04:05:27.732Z,36.30
2018-11-23T04:06:02.221Z,36.00
2018-11-23T04:06:36.424Z,36.17
2018-11-23T04:07:10.553Z,35.35
2018-11-23T04:07:44.668Z,34.05
2018-11-23T04:08:19.190Z,36.42
2018-11-23T04:08:53.535Z,37.35
2018-11-23T04:09:27.728Z,36.75
2018-11-23T04:10:01.885Z,35.73
2018-11-23T04:10:36.038Z,36.25
2018-11-23T04:11:10.528Z,36.08
2018-11-23T04:11:45.018Z,34.35
2018-11-23T04:12:19.120Z,37.58
2018-11-23T04:12:53.327Z,36.03
2018-11-23T04:13:27.463Z,34.90
2018-11-23T04:14:01.592Z,36.70
2018-11-23T04:14:35.804Z,35.85
2018-11-23T04:15:10.648Z,36.08
2018-11-23T04:15:44.765Z,34.65
2018-11-23T04:16:18.904Z,35.48
2018-11-23T04:16:53.386Z,36.63
2018-11-23T04:17:27.548Z,35.13
2018-11-23T04:18:01.730Z,35.63
2018-11-23T04:18:35.864Z,36.63
2018-11-23T04:19:09.996Z,36.42
2018-11-23T04:19:44.158Z,36.08
2018-11-23T04:20:18.668Z,36.70
2018-11-23T04:20:58.196Z,36.30
2018-11-23T04:21:32.368Z,38.63
2018-11-23T04:22:06.883Z,37.30
2018-11-23T04:22:41.715Z,38.95
2018-11-23T04:23:15.832Z,36.65
2018-11-23T04:23:50.310Z,38.02
2018-11-23T04:24:24.431Z,36.00
2018-11-23T04:24:58.632Z,35.80
2018-11-23T04:25:32.774Z,37.80
2018-11-23T04:26:06.939Z,35.68
2018-11-23T04:26:41.095Z,37.28
2018-11-23T04:27:15.274Z,37.15
2018-11-23T04:27:49.480Z,38.02
2018-11-23T04:28:23.919Z,37.60
2018-11-23T04:28:58.089Z,35.83
2018-11-23T04:29:32.654Z,36.55
2018-11-23T04:30:13.053Z,35.38
2018-11-23T04:30:47.177Z,36.77
2018-11-23T04:31:21.356Z,36.35
2018-11-23T04:31:56.116Z,36.28
2018-11-23T04:32:30.612Z,35.88
2018-11-23T04:33:05.428Z,37.28
2018-11-23T04:33:39.564Z,38.55
2018-11-23T04:34:14.056Z,37.98
2018-11-23T04:34:48.182Z,37.65
2018-11-23T04:35:22.348Z,36.63
2018-11-23T04:35:57.158Z,37.65
2018-11-23T04:36:31.311Z,35.78
2018-11-23T04:37:05.860Z,35.95
2018-11-23T04:37:40.176Z,37.60
2018-11-23T04:38:14.323Z,37.23
2018-11-23T04:38:48.460Z,38.17
2018-11-23T04:39:22.686Z,36.85
2018-11-23T04:39:57.156Z,39.00
2018-11-23T04:40:31.329Z,37.03
2018-11-23T04:41:05.826Z,37.65
2018-11-23T04:41:46.313Z,36.35
2018-11-23T04:42:14.292Z,36.03
2018-11-23T04:42:48.769Z,38.20
2018-11-23T04:43:22.961Z,40.83
2018-11-23T04:43:57.144Z,39.15
2018-11-23T04:44:31.284Z,38.10
2018-11-23T04:45:05.808Z,39.85
2018-11-23T04:45:39.976Z,39.27
2018-11-23T04:46:14.152Z,38.42
2018-11-23T04:46:48.296Z,36.80
2018-11-23T04:47:22.450Z,36.83
2018-11-23T04:47:56.596Z,38.42
2018-11-23T04:48:30.730Z,38.48
2018-11-23T04:49:05.464Z,39.58
2018-11-23T04:49:39.916Z,36.23
2018-11-23T04:50:15.286Z,38.83
2018-11-23T04:50:49.924Z,37.33
2018-11-23T04:51:24.116Z,37.55
2018-11-23T04:51:58.581Z,37.35
2018-11-23T04:52:32.711Z,36.63
2018-11-23T04:53:06.862Z,37.05
2018-11-23T04:53:41.072Z,38.10
2018-11-23T04:54:15.746Z,36.55
2018-11-23T04:54:49.903Z,37.95
2018-11-23T04:55:24.054Z,38.85
2018-11-23T04:55:58.235Z,34.88
2018-11-23T04:56:32.466Z,38.70
2018-11-23T04:57:06.648Z,37.50
2018-11-23T04:57:41.581Z,36.00
2018-11-23T04:58:15.717Z,36.23
2018-11-23T04:58:49.982Z,38.30
2018-11-23T04:59:24.091Z,36.98
2018-11-23T04:59:58.782Z,37.40
2018-11-23T05:00:32.924Z,37.48
2018-11-23T05:01:07.104Z,39.33
2018-11-23T05:01:41.236Z,39.38
2018-11-23T05:02:15.393Z,38.38
2018-11-23T05:02:49.528Z,39.18
2018-11-23T05:03:24.690Z,39.38
2018-11-23T05:03:58.832Z,38.45
2018-11-23T05:04:32.952Z,39.60
2018-11-23T05:05:08.426Z,38.23
2018-11-23T05:05:42.616Z,36.55
2018-11-23T05:06:17.112Z,37.00
2018-11-23T05:06:51.620Z,36.85
2018-11-23T05:07:25.736Z,40.43
2018-11-23T05:08:00.188Z,37.28
2018-11-23T05:08:34.304Z,36.85
2018-11-23T05:09:10.012Z,37.67
2018-11-23T05:09:44.164Z,36.05
2018-11-23T05:10:18.724Z,35.68
2018-11-23T05:10:52.937Z,34.65
2018-11-23T05:11:27.136Z,36.73
2018-11-23T05:12:01.262Z,34.90
2018-11-23T05:12:35.395Z,37.50
2018-11-23T05:13:09.562Z,37.08
2018-11-23T05:13:43.795Z,38.75
2018-11-23T05:14:17.976Z,38.25
2018-11-23T05:14:52.148Z,39.05
2018-11-23T05:15:26.632Z,39.60
2018-11-23T05:16:00.833Z,38.28
2018-11-23T05:16:35.026Z,35.78
2018-11-23T05:17:09.200Z,38.38
2018-11-23T05:17:43.678Z,39.13
2018-11-23T05:18:17.928Z,37.95
2018-11-23T05:18:52.184Z,40.05
2018-11-23T05:19:26.366Z,39.67
2018-11-23T05:20:00.510Z,39.80
2018-11-23T05:20:34.678Z,39.13
2018-11-23T05:21:09.177Z,39.27
2018-11-23T05:21:43.388Z,39.30
2018-11-23T05:22:17.550Z,39.90
2018-11-23T05:22:51.726Z,38.78
2018-11-23T05:23:25.944Z,40.08
2018-11-23T05:24:00.130Z,38.35
2018-11-23T05:24:34.296Z,38.83
2018-11-23T05:25:09.825Z,39.42
2018-11-23T05:25:43.980Z,39.60
2018-11-23T05:26:18.506Z,38.23
2018-11-23T05:26:52.756Z,38.65
2018-11-23T05:27:26.920Z,39.58
2018-11-23T05:28:01.105Z,39.53
2018-11-23T05:28:35.248Z,40.17
2018-11-23T05:29:09.397Z,37.95
2018-11-23T05:29:43.604Z,40.58
2018-11-23T05:30:19.625Z,40.12
2018-11-23T05:30:53.832Z,40.80
2018-11-23T05:31:27.985Z,39.58
2018-11-23T05:32:02.195Z,42.80
2018-11-23T05:32:36.330Z,40.30
2018-11-23T05:33:10.513Z,40.20
2018-11-23T05:33:44.720Z,40.43
2018-11-23T05:34:18.856Z,39.23
2018-11-23T05:34:53.063Z,38.58
2018-11-23T05:35:27.264Z,40.60
2018-11-23T05:36:01.390Z,39.27
2018-11-23T05:36:36.180Z,38.30
2018-11-23T05:37:10.459Z,40.12
2018-11-23T05:37:44.940Z,38.23
2018-11-23T05:38:19.105Z,39.53
2018-11-23T05:38:53.249Z,40.67
2018-11-23T05:39:27.379Z,40.60
2018-11-23T05:40:01.526Z,40.00
2018-11-23T05:40:35.644Z,38.58
2018-11-23T05:41:09.800Z,40.67
2018-11-23T05:41:44.304Z,40.95
2018-11-23T05:42:18.492Z,39.58
2018-11-23T05:42:52.684Z,40.73
2018-11-23T05:43:26.886Z,41.37
2018-11-23T05:44:01.031Z,41.95
2018-11-23T05:44:35.186Z,42.35
2018-11-23T05:45:11.910Z,40.70
2018-11-23T05:45:46.064Z,42.40
2018-11-23T05:46:20.864Z,41.00
2018-11-23T05:46:55.032Z,39.75
2018-11-23T05:47:29.265Z,39.73
2018-11-23T05:48:03.443Z,39.15
2018-11-23T05:48:37.588Z,37.98
2018-11-23T05:49:12.048Z,36.88
2018-11-23T05:49:46.208Z,40.03
2018-11-23T05:50:22.733Z,38.73
2018-11-23T05:50:56.895Z,38.40
2018-11-23T05:51:31.035Z,36.35
2018-11-23T05:52:05.689Z,40.55
2018-11-23T05:52:40.056Z,38.80
2018-11-23T05:53:14.212Z,39.75
2018-11-23T05:53:48.384Z,39.05
2018-11-23T05:54:22.601Z,39.70
2018-11-23T05:54:56.753Z,38.20
2018-11-23T05:55:30.972Z,37.85
2018-11-23T05:56:06.182Z,41.25
2018-11-23T05:56:40.368Z,39.78
2018-11-23T05:57:14.551Z,43.52
2018-11-23T05:57:49.203Z,40.33
2018-11-23T05:58:23.376Z,42.23
2018-11-23T05:58:57.543Z,40.35
2018-11-23T05:59:31.724Z,40.65
2018-11-23T06:00:08.743Z,40.92
2018-11-23T06:00:43.315Z,38.95
2018-11-23T06:01:17.499Z,39.90
2018-11-23T06:01:51.850Z,45.35
2018-11-23T06:02:26.337Z,56.50
2018-11-23T06:03:00.518Z,59.13
2018-11-23T06:03:34.728Z,50.10
2018-11-23T06:04:08.872Z,43.98
2018-11-23T06:04:43.025Z,46.68
2018-11-23T06:05:17.208Z,48.30
2018-11-23T06:05:51.813Z,48.50
2018-11-23T06:06:26.028Z,42.08
2018-11-23T06:07:00.551Z,43.10
2018-11-23T06:07:34.733Z,41.85
2018-11-23T06:08:09.238Z,41.28
2018-11-23T06:08:43.390Z,38.60
2018-11-23T06:09:17.540Z,41.18
2018-11-23T06:09:51.696Z,36.83
2018-11-23T06:10:25.957Z,38.90
2018-11-23T06:11:00.132Z,39.13
2018-11-23T06:11:34.301Z,38.73
2018-11-23T06:12:08.555Z,38.67
2018-11-23T06:12:43.139Z,36.48
2018-11-23T06:13:17.382Z,38.23
2018-11-23T06:13:51.941Z,40.38
2018-11-23T06:14:26.126Z,38.45
2018-11-23T06:15:00.296Z,37.05
2018-11-23T06:15:34.473Z,37.58
2018-11-23T06:16:08.972Z,39.70
2018-11-23T06:16:43.140Z,40.70
2018-11-23T06:17:17.292Z,37.70
2018-11-23T06:17:51.649Z,38.75
2018-11-23T06:18:25.816Z,38.60
2018-11-23T06:18:59.964Z,38.88
2018-11-23T06:19:34.159Z,39.95
2018-11-23T06:20:11.131Z,37.17
2018-11-23T06:20:45.588Z,36.68
2018-11-23T06:21:19.742Z,40.63
2018-11-23T06:21:53.964Z,39.58
2018-11-23T06:22:28.129Z,41.77
2018-11-23T06:23:02.267Z,39.53
2018-11-23T06:23:36.492Z,38.80
2018-11-23T06:24:10.632Z,38.05
2018-11-23T06:24:44.796Z,36.70
2018-11-23T06:25:25.122Z,37.83
2018-11-23T06:26:02.858Z,35.90
2018-11-23T06:26:37.223Z,38.02
2018-11-23T06:27:11.577Z,35.65
2018-11-23T06:27:45.721Z,35.65
2018-11-23T06:28:19.934Z,37.65
2018-11-23T06:28:54.112Z,34.60
2018-11-23T06:29:28.244Z,36.77
2018-11-23T06:30:02.401Z,36.65
2018-11-23T06:30:36.922Z,35.98
2018-11-23T06:31:11.396Z,37.40
2018-11-23T06:31:45.560Z,38.28
2018-11-23T06:32:31.198Z,34.58
2018-11-23T06:33:17.350Z,34.38
2018-11-23T06:33:51.503Z,34.45
2018-11-23T06:34:25.664Z,33.45
2018-11-23T06:34:59.864Z,34.80
2018-11-23T06:35:34.001Z,34.55
2018-11-23T06:36:08.208Z,35.03
2018-11-23T06:36:42.374Z,35.78
2018-11-23T06:37:16.494Z,34.90
2018-11-23T06:37:50.712Z,35.28
2018-11-23T06:38:24.874Z,35.98
2018-11-23T06:38:59.056Z,35.38
2018-11-23T06:39:33.223Z,34.88
2018-11-23T06:40:08.845Z,35.60
2018-11-23T06:40:43.007Z,36.00
2018-11-23T06:41:17.126Z,34.63
2018-11-23T06:41:51.264Z,37.08
2018-11-23T06:42:25.413Z,34.38
2018-11-23T06:42:59.541Z,33.33
2018-11-23T06:43:33.684Z,32.85
2018-11-23T06:44:07.801Z,34.78
2018-11-23T06:44:41.948Z,32.50
2018-11-23T06:45:16.095Z,35.23
2018-11-23T06:45:50.200Z,34.55
2018-11-23T06:46:24.396Z,32.70
2018-11-23T06:46:59.331Z,32.23
2018-11-23T06:47:33.470Z,34.33
2018-11-23T06:48:08.892Z,35.65
2018-11-23T06:48:43.054Z,35.92
2018-11-23T06:49:17.204Z,34.38
2018-11-23T06:49:51.369Z,35.83
2018-11-23T06:50:26.202Z,35.43
2018-11-23T06:51:00.711Z,35.55
2018-11-23T06:51:34.876Z,34.83
2018-11-23T06:52:09.032Z,34.30
2018-11-23T06:52:43.200Z,33.60
2018-11-23T06:53:17.684Z,34.73
2018-11-23T06:53:51.808Z,34.65
2018-11-23T06:54:25.988Z,33.30
2018-11-23T06:55:00.160Z,33.35
2018-11-23T06:55:34.363Z,35.05
2018-11-23T06:56:08.848Z,33.95
2018-11-23T06:56:43.021Z,34.95
2018-11-23T06:57:17.510Z,35.23
2018-11-23T06:57:51.666Z,36.28
2018-11-23T06:58:25.944Z,35.80
2018-11-23T06:59:00.118Z,31.80
2018-11-23T06:59:34.266Z,33.30
2018-11-23T07:00:12.259Z,31.57
2018-11-23T07:00:46.453Z,34.53
2018-11-23T07:01:20.643Z,32.63
2018-11-23T07:01:54.796Z,34.58
2018-11-23T07:02:28.957Z,32.08
2018-11-23T07:03:03.436Z,31.65
2018-11-23T07:03:37.633Z,31.95
2018-11-23T07:04:11.806Z,32.83
2018-11-23T07:04:45.979Z,31.80
2018-11-23T07:05:20.495Z,32.20
2018-11-23T07:05:54.960Z,32.42
2018-11-23T07:06:29.120Z,32.10
2018-11-23T07:07:03.613Z,29.48
2018-11-23T07:07:38.092Z,31.85
2018-11-23T07:08:12.890Z,32.20
2018-11-23T07:08:52.349Z,30.82
2018-11-23T07:09:21.409Z,30.20
2018-11-23T07:09:55.876Z,30.62
2018-11-23T07:10:30.043Z,30.52
2018-11-23T07:11:04.547Z,29.32
2018-11-23T07:11:38.716Z,30.02
2018-11-23T07:12:12.888Z,28.92
2018-11-23T07:12:47.036Z,26.00
2018-11-23T07:13:21.239Z,26.30
2018-11-23T07:13:55.408Z,26.85
2018-11-23T07:14:29.540Z,29.15
2018-11-23T07:15:03.705Z,28.55
2018-11-23T07:15:38.578Z,29.67
2018-11-23T07:16:12.760Z,28.00
2018-11-23T07:16:46.912Z,28.02
2018-11-23T07:17:21.238Z,27.70
2018-11-23T07:17:55.418Z,27.00
2018-11-23T07:18:29.695Z,27.70
2018-11-23T07:19:04.209Z,27.22
2018-11-23T07:19:38.361Z,27.55
2018-11-23T07:20:14.116Z,28.07
2018-11-23T07:20:48.303Z,26.65
2018-11-23T07:21:22.453Z,28.67
2018-11-23T07:21:56.625Z,28.30
2018-11-23T07:22:31.095Z,27.98
2018-11-23T07:23:05.613Z,31.57
2018-11-23T07:23:39.792Z,29.48
2018-11-23T07:24:13.935Z,29.92
2018-11-23T07:24:48.108Z,28.17
2018-11-23T07:25:22.669Z,29.02
2018-11-23T07:25:56.878Z,29.20